Time;durP1;ratioP1;P1;durP2;ratioP2;P2;SDS_P1;SDS_P2;PMS_P1;PMS_P2;Temp;Humidity;BMP_temperature;BMP_pressure;BME280_temperature;BME280_humidity;BME280_pressure;Samples;Min_cycle;Max_cycle;Signal;HPM_P1;HPM_P2
2022/10/09 00:00:51;166899.00;0.56;288.92;0.00;0.00;0.62;;;;;17.20;1.00;;;;;;2276457;61;1027;-85
2022/10/09 00:03:18;456442.00;1.52;786.86;36676.00;0.12;64.14;;;;;16.80;1.00;;;;;;2276427;61;1410;-86
2022/10/09 00:05:46;436943.00;1.46;753.33;0.00;0.00;0.62;;;;;16.80;1.00;;;;;;2276448;61;1114;-86
2022/10/09 00:08:13;387980.00;1.29;669.14;26746.00;0.09;46.95;;;;;16.50;1.00;;;;;;2276473;61;1141;-86
2022/10/09 00:10:43;602609.00;2.01;1038.72;67629.00;0.23;117.66;;;;;16.40;1.00;;;;;;2276174;61;1923;-86
2022/10/09 00:13:10;370227.00;1.23;638.63;47159.00;0.16;82.27;;;;;16.50;1.00;;;;;;2276406;61;1293;-85
2022/10/09 00:15:38;228097.00;0.76;394.27;0.00;0.00;0.62;;;;;16.60;1.00;;;;;;2276292;61;1585;-84
2022/10/09 00:18:05;378908.00;1.26;653.55;36377.00;0.12;63.62;;;;;16.60;1.00;;;;;;2276305;61;1496;-85
2022/10/09 00:20:36;438988.00;1.46;756.84;21962.00;0.07;38.67;;;;;16.60;1.00;;;;;;2276441;61;1129;-86
2022/10/09 00:23:05;61250.00;0.20;106.64;0.00;0.00;0.62;;;;;16.60;1.00;;;;;;2276339;61;1430;-86
2022/10/09 00:25:32;463377.00;1.54;798.79;43058.00;0.14;75.18;;;;;16.50;1.00;;;;;;2276286;61;1036;-84
2022/10/09 00:27:59;629314.00;2.10;1084.86;0.00;0.00;0.62;;;;;16.50;1.00;;;;;;2276327;61;1451;-87
2022/10/09 00:30:27;176296.00;0.59;305.11;0.00;0.00;0.62;;;;;16.80;1.00;;;;;;2276177;61;2005;-86
2022/10/09 00:32:54;343110.00;1.14;592.02;0.00;0.00;0.62;;;;;17.10;1.00;;;;;;2276311;61;1115;-84
2022/10/09 00:35:20;348557.00;1.16;601.38;0.00;0.00;0.62;;;;;17.10;1.00;;;;;;2276031;61;1391;-85
2022/10/09 00:37:48;376337.00;1.25;649.13;43126.00;0.14;75.30;;;;;17.20;1.00;;;;;;2276335;61;909;-85
2022/10/09 00:40:17;446681.00;1.49;770.07;0.00;0.00;0.62;;;;;17.20;1.00;;;;;;2276355;61;1144;-84
2022/10/09 00:42:44;401504.00;1.34;692.39;0.00;0.00;0.62;;;;;17.00;1.00;;;;;;2276301;61;1133;-84
2022/10/09 00:45:19;447213.00;1.49;770.99;0.00;0.00;0.62;;;;;17.10;1.00;;;;;;2276593;61;1385;-83
2022/10/09 00:47:50;241182.00;0.80;416.78;0.00;0.00;0.62;;;;;17.00;1.00;;;;;;2276987;61;1118;-84
2022/10/09 00:50:22;289021.00;0.96;499.05;0.00;0.00;0.62;;;;;17.20;1.00;;;;;;2276994;61;1914;-84
2022/10/09 00:52:53;308386.00;1.03;532.34;0.00;0.00;0.62;;;;;17.10;1.00;;;;;;2277075;61;1125;-83
2022/10/09 00:55:23;422000.00;1.41;727.63;0.00;0.00;0.62;;;;;17.30;1.00;;;;;;2276989;61;1293;-85
2022/10/09 00:57:54;655075.00;2.18;1129.42;91665.00;0.31;159.18;;;;;17.20;1.00;;;;;;2276967;61;1025;-85
2022/10/09 01:00:22;396874.00;1.32;684.43;0.00;0.00;0.62;;;;;17.00;1.00;;;;;;2276967;61;1062;-84
2022/10/09 01:02:49;342866.00;1.14;591.60;0.00;0.00;0.62;;;;;17.10;1.00;;;;;;2277006;61;1161;-84
2022/10/09 01:05:16;376615.00;1.26;649.61;0.00;0.00;0.62;;;;;16.90;1.00;;;;;;2276917;61;1410;-84
2022/10/09 01:07:49;305289.00;1.02;527.01;0.00;0.00;0.62;;;;;16.70;1.00;;;;;;2276939;61;909;-83
2022/10/09 01:10:36;499166.00;1.66;860.39;38438.00;0.13;67.19;;;;;16.30;1.00;;;;;;2276945;61;1980;-83
2022/10/09 01:13:10;288090.00;0.96;497.45;0.00;0.00;0.62;;;;;16.20;1.00;;;;;;2276819;61;1861;-82
2022/10/09 01:15:44;249877.00;0.83;431.74;0.00;0.00;0.62;;;;;16.00;1.00;;;;;;2276951;61;1074;-84
2022/10/09 01:18:19;322274.00;1.07;556.21;0.00;0.00;0.62;;;;;16.20;1.00;;;;;;2276921;61;1095;-84
2022/10/09 01:20:52;356453.00;1.19;614.95;0.00;0.00;0.62;;;;;16.60;1.00;;;;;;2277047;61;1107;-85
2022/10/09 01:24:04;548031.00;1.83;944.57;54674.00;0.18;95.27;;;;;16.90;1.00;;;;;;2276965;61;1387;-87
2022/10/09 01:26:56;430842.00;1.44;742.83;0.00;0.00;0.62;;;;;17.10;1.00;;;;;;2276343;61;1142;-84
2022/10/09 01:29:26;368473.00;1.23;635.61;0.00;0.00;0.62;;;;;17.10;1.00;;;;;;2277025;61;1129;-86
2022/10/09 01:31:55;398138.00;1.33;686.60;0.00;0.00;0.62;;;;;16.80;1.00;;;;;;2276877;61;2010;-86
2022/10/09 01:34:24;310091.00;1.03;535.27;0.00;0.00;0.62;;;;;17.00;1.00;;;;;;2276955;61;1371;-86
2022/10/09 01:36:53;271720.00;0.91;469.30;0.00;0.00;0.62;;;;;16.70;1.00;;;;;;2276950;61;1090;-86
2022/10/09 01:39:23;37637.00;0.13;65.80;0.00;0.00;0.62;;;;;16.70;1.00;;;;;;2276918;61;1067;-85
2022/10/09 01:41:54;378018.00;1.26;652.02;0.00;0.00;0.62;;;;;16.70;1.00;;;;;;2276903;61;1071;-84
2022/10/09 01:44:23;485283.00;1.62;836.49;30176.00;0.10;52.89;;;;;16.40;1.00;;;;;;2276846;61;1456;-86
2022/10/09 01:46:50;229522.00;0.77;396.73;0.00;0.00;0.62;;;;;16.30;1.00;;;;;;2276595;61;1121;-85
2022/10/09 01:49:36;219619.00;0.73;379.69;0.00;0.00;0.62;;;;;16.00;1.00;;;;;;2276823;61;1103;-82
2022/10/09 01:52:09;390776.00;1.30;673.95;13203.00;0.04;23.50;;;;;15.30;1.00;;;;;;2276751;61;1984;-84
2022/10/09 01:54:44;491779.00;1.64;847.67;7965.00;0.03;14.42;;;;;15.40;1.00;;;;;;2276795;61;1366;-84
2022/10/09 01:57:17;224798.00;0.75;388.60;0.00;0.00;0.62;;;;;15.00;1.00;;;;;;2276693;61;1083;-85
2022/10/09 01:59:49;207537.00;0.69;358.90;0.00;0.00;0.62;;;;;15.50;1.00;;;;;;2276772;61;1619;-85
2022/10/09 02:02:17;540573.00;1.80;931.71;20514.00;0.07;36.16;;;;;15.60;1.00;;;;;;2276800;61;1134;-85
2022/10/09 02:04:44;372915.00;1.24;643.25;0.00;0.00;0.62;;;;;15.50;1.00;;;;;;2276675;61;1355;-85
2022/10/09 02:07:11;339026.00;1.13;585.00;0.00;0.00;0.62;;;;;15.70;1.00;;;;;;2276770;61;1155;-85
2022/10/09 02:09:40;292865.00;0.98;505.65;0.00;0.00;0.62;;;;;15.70;1.00;;;;;;2276704;61;1004;-85
2022/10/09 02:12:09;228088.00;0.76;394.26;0.00;0.00;0.62;;;;;15.50;1.00;;;;;;2276694;61;2052;-84
2022/10/09 02:14:38;209792.00;0.70;362.78;0.00;0.00;0.62;;;;;15.60;1.00;;;;;;2276732;61;1288;-87
2022/10/09 02:17:12;437610.00;1.46;754.47;0.00;0.00;0.62;;;;;15.60;1.00;;;;;;2276699;61;1138;-88
2022/10/09 02:19:46;397726.00;1.33;685.90;0.00;0.00;0.62;;;;;15.50;1.00;;;;;;2276752;61;1019;-87
2022/10/09 02:22:17;368891.00;1.23;636.33;7799.00;0.03;14.14;;;;;15.60;1.00;;;;;;2276757;61;940;-84
2022/10/09 02:24:45;297327.00;0.99;513.33;0.00;0.00;0.62;;;;;15.70;1.00;;;;;;2276561;61;1347;-85
2022/10/09 02:27:14;335176.00;1.12;578.38;0.00;0.00;0.62;;;;;15.50;1.00;;;;;;2276621;61;1107;-85
2022/10/09 02:29:45;322584.00;1.08;556.74;0.00;0.00;0.62;;;;;15.60;1.00;;;;;;2276576;61;1057;-84
2022/10/09 02:32:12;308880.00;1.03;533.18;0.00;0.00;0.62;;;;;15.70;1.00;;;;;;2276637;61;1993;-84
2022/10/09 02:34:39;268897.00;0.90;464.45;0.00;0.00;0.62;;;;;14.70;1.00;;;;;;2276611;61;1371;-86
2022/10/09 02:37:07;664825.00;2.22;1146.29;85880.00;0.29;149.19;;;;;14.70;1.50;;;;;;2276666;61;1092;-84
2022/10/09 02:39:34;370212.00;1.23;638.60;0.00;0.00;0.62;;;;;14.70;1.40;;;;;;2276584;61;1603;-84
2022/10/09 02:42:01;329874.00;1.10;569.27;0.00;0.00;0.62;;;;;14.10;1.00;;;;;;2276648;61;1129;-83
2022/10/09 02:44:28;310600.00;1.04;536.14;0.00;0.00;0.62;;;;;13.80;1.80;;;;;;2276672;61;1297;-85
2022/10/09 02:46:56;433552.00;1.45;747.49;0.00;0.00;0.62;;;;;13.90;1.00;;;;;;2276646;61;1072;-85
2022/10/09 02:49:24;224502.00;0.75;388.09;0.00;0.00;0.62;;;;;14.30;2.60;;;;;;2276696;61;1200;-86
2022/10/09 02:51:51;259740.00;0.87;448.70;0.00;0.00;0.62;;;;;14.50;1.00;;;;;;2276257;61;2005;-85
2022/10/09 02:54:17;365279.00;1.22;630.12;0.00;0.00;0.62;;;;;14.80;2.40;;;;;;2276538;61;1406;-85
2022/10/09 02:56:44;326443.00;1.09;563.37;0.00;0.00;0.62;;;;;14.80;1.00;;;;;;2276603;61;1503;-86
2022/10/09 02:59:11;248741.00;0.83;429.79;0.00;0.00;0.62;;;;;14.80;1.70;;;;;;2276466;61;1019;-84
2022/10/09 03:01:38;389514.00;1.30;671.78;0.00;0.00;0.62;;;;;14.90;1.00;;;;;;2276608;61;1110;-84
2022/10/09 03:04:06;385282.00;1.28;664.50;20370.00;0.07;35.91;;;;;14.80;1.00;;;;;;2276493;61;1694;-86
2022/10/09 03:06:34;326546.00;1.09;563.55;0.00;0.00;0.62;;;;;14.80;1.00;;;;;;2276525;61;1072;-86
2022/10/09 03:09:01;406063.00;1.35;700.23;0.00;0.00;0.62;;;;;14.30;1.00;;;;;;2276443;61;1191;-84
2022/10/09 03:11:28;330795.00;1.10;570.85;0.00;0.00;0.62;;;;;14.90;2.40;;;;;;2276539;61;1997;-83
2022/10/09 03:13:55;311783.00;1.04;538.17;0.00;0.00;0.62;;;;;15.10;1.00;;;;;;2276552;61;1397;-85
2022/10/09 03:16:23;416309.00;1.39;717.84;0.00;0.00;0.62;;;;;15.00;1.00;;;;;;2276501;61;1113;-82
2022/10/09 03:18:51;311748.00;1.04;538.11;0.00;0.00;0.62;;;;;14.70;1.00;;;;;;2276538;61;1245;-85
2022/10/09 03:21:21;440647.00;1.47;759.70;0.00;0.00;0.62;;;;;14.80;1.00;;;;;;2276504;61;1036;-85
2022/10/09 03:23:49;493063.00;1.64;849.88;0.00;0.00;0.62;;;;;14.90;1.00;;;;;;2276457;61;1509;-84
2022/10/09 03:26:17;449441.00;1.50;774.82;36985.00;0.12;64.67;;;;;15.00;1.70;;;;;;2276500;61;928;-88
2022/10/09 03:28:46;290203.00;0.97;501.08;0.00;0.00;0.62;;;;;15.00;1.00;;;;;;2276555;61;1053;-87
2022/10/09 03:31:14;258701.00;0.86;446.91;0.00;0.00;0.62;;;;;15.10;1.00;;;;;;2276420;61;1923;-85
2022/10/09 03:33:41;334031.00;1.11;576.41;0.00;0.00;0.62;;;;;15.10;1.00;;;;;;2276458;61;1432;-87
2022/10/09 03:36:10;318056.00;1.06;548.96;0.00;0.00;0.62;;;;;15.30;1.30;;;;;;2276357;61;1277;-85
2022/10/09 03:38:39;302072.00;1.01;521.48;0.00;0.00;0.62;;;;;15.50;1.00;;;;;;2276445;61;922;-86
2022/10/09 03:41:07;297314.00;0.99;513.30;57643.00;0.19;100.40;;;;;15.40;1.00;;;;;;2276461;61;1079;-86
2022/10/09 03:43:35;382749.00;1.28;660.15;0.00;0.00;0.62;;;;;15.20;1.00;;;;;;2276421;61;1301;-87
2022/10/09 03:46:05;284522.00;0.95;491.31;0.00;0.00;0.62;;;;;15.30;1.00;;;;;;2276378;61;1100;-85
2022/10/09 03:48:32;297818.00;0.99;514.17;0.00;0.00;0.62;;;;;15.30;1.00;;;;;;2276419;61;1470;-84
2022/10/09 03:50:59;309648.00;1.03;534.50;0.00;0.00;0.62;;;;;15.10;1.00;;;;;;2276315;61;2006;-85
2022/10/09 03:53:27;433103.00;1.44;746.72;0.00;0.00;0.62;;;;;15.30;1.00;;;;;;2276395;61;1268;-86
2022/10/09 03:55:56;326322.00;1.09;563.16;0.00;0.00;0.62;;;;;15.20;1.00;;;;;;2276421;61;1136;-86
2022/10/09 03:58:22;485181.00;1.62;836.31;0.00;0.00;0.62;;;;;15.20;1.00;;;;;;2276137;61;1007;-84
2022/10/09 04:00:51;441099.00;1.47;760.47;0.00;0.00;0.62;;;;;15.10;1.00;;;;;;2276344;61;1170;-85
2022/10/09 04:03:18;397769.00;1.33;685.97;16757.00;0.06;29.65;;;;;15.00;1.00;;;;;;2276310;61;1396;-84
2022/10/09 04:05:45;347577.00;1.16;599.70;0.00;0.00;0.62;;;;;15.20;1.00;;;;;;2276452;61;1131;-86
2022/10/09 04:08:11;146729.00;0.49;254.17;0.00;0.00;0.62;;;;;14.90;1.00;;;;;;2276412;61;1079;-84
2022/10/09 04:10:38;280601.00;0.94;484.57;0.00;0.00;0.62;;;;;14.80;1.00;;;;;;2276305;61;1916;-85
2022/10/09 04:13:07;265578.00;0.89;458.74;0.00;0.00;0.62;;;;;14.80;1.00;;;;;;2276322;61;1374;-87
2022/10/09 04:15:35;323396.00;1.08;558.14;0.00;0.00;0.62;;;;;15.20;1.00;;;;;;2276278;61;1075;-84
2022/10/09 04:18:03;410691.00;1.37;708.19;0.00;0.00;0.62;;;;;15.30;1.00;;;;;;2276278;61;1134;-85
2022/10/09 04:20:31;425023.00;1.42;732.83;61032.00;0.20;106.26;;;;;15.10;1.00;;;;;;2276216;61;1150;-84
2022/10/09 04:22:57;447252.00;1.49;771.06;0.00;0.00;0.62;;;;;14.50;1.00;;;;;;2286519;40;3602;-85
2022/10/09 04:25:24;403459.00;1.34;695.75;57117.00;0.19;99.49;;;;;14.30;1.00;;;;;;2276278;61;1417;-85
2022/10/09 04:27:51;269509.00;0.90;465.50;0.00;0.00;0.62;;;;;14.50;1.00;;;;;;2287727;40;3576;-87
2022/10/09 04:30:19;356527.00;1.19;615.08;0.00;0.00;0.62;;;;;14.90;1.00;;;;;;2276286;61;1152;-85
2022/10/09 04:32:47;118531816.00;395.11;67459720.00;0.00;0.00;0.62;;;;;14.80;1.00;;;;;;2276253;61;2009;-84
2022/10/09 04:35:15;271977.00;0.91;469.74;0.00;0.00;0.62;;;;;14.90;1.60;;;;;;2276286;61;1404;-86
2022/10/09 04:37:42;350408.00;1.17;604.56;0.00;0.00;0.62;;;;;14.90;1.00;;;;;;2276321;61;1073;-85
2022/10/09 04:40:09;183236.00;0.61;317.06;0.00;0.00;0.62;;;;;15.00;1.40;;;;;;2276333;61;1182;-84
2022/10/09 04:42:36;428686.00;1.43;739.13;0.00;0.00;0.62;;;;;15.20;1.00;;;;;;2276167;61;1074;-85
2022/10/09 04:45:06;309410.00;1.03;534.10;0.00;0.00;0.62;;;;;15.20;1.20;;;;;;2275906;61;1376;-87
2022/10/09 04:47:35;1260601.00;4.20;2200.18;22278.00;0.07;39.21;;;;;15.30;1.40;;;;;;2275985;61;1391;-86
2022/10/09 04:50:02;813872.00;2.71;1405.33;5016.00;0.02;9.31;;;;;15.00;1.00;;;;;;2276184;61;1106;-86
2022/10/09 04:52:29;773064.00;2.58;1334.19;6713.00;0.02;12.25;;;;;14.90;1.00;;;;;;2276320;61;1915;-86
2022/10/09 04:54:56;741138.00;2.47;1278.65;0.00;0.00;0.62;;;;;14.30;1.00;;;;;;2276270;61;1335;-87
2022/10/09 04:57:23;809568.00;2.70;1397.82;12985.00;0.04;23.12;;;;;13.80;1.00;;;;;;2276229;61;1056;-85
2022/10/09 04:59:50;650191.00;2.17;1120.97;0.00;0.00;0.62;;;;;13.90;2.40;;;;;;2276132;61;1137;-85
2022/10/09 05:02:17;579462.00;1.93;998.77;0.00;0.00;0.62;;;;;14.60;2.20;;;;;;2276247;61;1005;-83
2022/10/09 05:04:46;693118.00;2.31;1195.31;14314.00;0.05;25.42;;;;;15.00;1.00;;;;;;2276178;61;1385;-86
2022/10/09 05:07:13;645819.00;2.15;1113.40;18162.00;0.06;32.09;;;;;15.10;1.60;;;;;;2276088;61;1611;-86
2022/10/09 05:09:40;713863.00;2.38;1231.29;28496.00;0.09;49.98;;;;;15.30;2.10;;;;;;2276083;61;1240;-85
2022/10/09 05:12:07;838247.00;2.79;1447.91;0.00;0.00;0.62;;;;;15.20;1.00;;;;;;2276102;61;1923;-85
2022/10/09 05:14:33;1028851.00;3.43;1783.64;0.00;0.00;0.62;;;;;15.40;1.00;;;;;;2276077;61;1368;-85
2022/10/09 05:17:04;523348.00;1.74;902.03;0.00;0.00;0.62;;;;;15.20;1.00;;;;;;2276177;61;1022;-86
2022/10/09 05:19:33;803313.00;2.68;1386.90;6591.00;0.02;12.04;;;;;15.20;1.00;;;;;;2275964;61;949;-86
2022/10/09 05:22:01;838472.00;2.79;1448.30;89996.00;0.30;156.30;;;;;15.10;1.00;;;;;;2276048;61;1180;-86
2022/10/09 05:24:29;677412.00;2.26;1168.09;43180.00;0.14;75.39;;;;;14.80;1.40;;;;;;2276016;61;1362;-86
2022/10/09 05:26:55;657975.00;2.19;1134.44;95315.00;0.32;165.48;;;;;14.60;1.00;;;;;;2276022;61;1036;-86
2022/10/09 05:29:22;726745.00;2.42;1253.65;11370.00;0.04;20.32;;;;;14.70;2.20;;;;;;2276068;61;1134;-86
2022/10/09 05:31:49;820387.00;2.73;1416.70;25680.00;0.09;45.10;;;;;14.50;1.00;;;;;;2276554;61;1920;-86
2022/10/09 05:34:16;835916.00;2.79;1443.83;23167.00;0.08;40.75;;;;;14.50;1.00;;;;;;2276692;61;1370;-87
2022/10/09 05:36:43;489654.00;1.63;844.01;0.00;0.00;0.62;;;;;14.80;1.00;;;;;;2276690;61;954;-85
2022/10/09 05:39:11;633196.00;2.11;1091.57;15278.00;0.05;27.09;;;;;14.70;1.00;;;;;;2276792;61;1099;-85
2022/10/09 05:41:38;722146.00;2.41;1245.66;0.00;0.00;0.62;;;;;14.80;1.00;;;;;;2276832;61;1101;-85
2022/10/09 05:44:05;608290.00;2.03;1048.54;0.00;0.00;0.62;;;;;15.00;1.00;;;;;;2276667;61;1407;-85
2022/10/09 05:46:32;758466.00;2.53;1308.78;0.00;0.00;0.62;;;;;14.30;1.00;;;;;;2276756;61;1044;-85
2022/10/09 05:49:00;679488.00;2.26;1171.69;0.00;0.00;0.62;;;;;14.40;1.30;;;;;;2276784;61;1033;-84
2022/10/09 05:51:29;543674.00;1.81;937.06;53970.00;0.18;94.05;;;;;14.80;1.00;;;;;;2276675;61;1915;-86
2022/10/09 05:53:57;597779.00;1.99;1030.39;12476.00;0.04;22.24;;;;;14.60;1.00;;;;;;2276840;61;1309;-86
2022/10/09 05:56:28;745216.00;2.48;1285.74;0.00;0.00;0.62;;;;;14.80;1.00;;;;;;2276827;61;1082;-86
2022/10/09 05:58:57;825354.00;2.75;1425.38;70468.00;0.23;122.57;;;;;14.80;1.00;;;;;;2276848;61;1130;-86
2022/10/09 06:01:26;925436.00;3.08;1600.84;0.00;0.00;0.62;;;;;15.00;1.00;;;;;;2276722;61;1461;-85
2022/10/09 06:03:54;702724.00;2.34;1211.96;0.00;0.00;0.62;;;;;15.00;1.00;;;;;;2276812;61;1317;-85
2022/10/09 06:06:23;916236.00;3.05;1584.65;31365.00;0.10;54.95;;;;;15.00;1.00;;;;;;2276768;61;1133;-85
2022/10/09 06:08:50;841828.00;2.81;1454.17;13711.00;0.05;24.38;;;;;14.80;1.00;;;;;;2276665;61;1648;-86
2022/10/09 06:11:20;847177.00;2.82;1463.53;59218.00;0.20;103.12;;;;;14.90;1.00;;;;;;2276612;61;2006;-84
2022/10/09 06:13:48;886670.00;2.96;1532.72;11358.00;0.04;20.30;;;;;14.90;1.00;;;;;;2276750;61;1346;-86
2022/10/09 06:16:17;845663.00;2.82;1460.88;70824.00;0.24;123.18;;;;;14.20;1.00;;;;;;2276705;61;1621;-88
2022/10/09 06:18:46;799579.00;2.67;1380.39;16276.00;0.05;28.82;;;;;14.20;1.00;;;;;;2276773;61;1121;-85
2022/10/09 06:23:42;1001833.00;3.34;1735.72;46830.00;0.16;81.70;;;;;13.80;1.00;;;;;;2266521;61;1436;-86
2022/10/09 06:26:12;992477.00;3.31;1719.15;21722.00;0.07;38.25;;;;;14.00;1.00;;;;;;2264680;61;1134;-86
2022/10/09 06:28:40;965358.00;3.22;1671.21;14386.00;0.05;25.55;;;;;14.10;1.00;;;;;;2264564;61;1156;-86
2022/10/09 06:31:14;933949.00;3.11;1615.83;14143.00;0.05;25.13;;;;;14.40;1.00;;;;;;2264550;61;1107;-86
2022/10/09 06:33:43;934464.00;3.11;1616.73;9938.00;0.03;17.84;;;;;14.30;1.00;;;;;;2264526;61;1454;-86
2022/10/09 06:36:13;930608.00;3.10;1609.94;6262.00;0.02;11.47;;;;;14.50;1.00;;;;;;2264579;61;1103;-86
2022/10/09 06:38:42;864001.00;2.88;1492.98;12459.00;0.04;22.21;;;;;15.00;1.00;;;;;;2278848;40;3584;-86
2022/10/09 06:41:11;1041888.00;3.47;1806.80;0.00;0.00;0.62;;;;;14.80;1.00;;;;;;2276650;61;1246;-84
2022/10/09 06:43:39;492438.00;1.64;848.81;0.00;0.00;0.62;;;;;14.20;1.00;;;;;;2276624;61;1352;-87
2022/10/09 06:46:10;341975.00;1.14;590.07;0.00;0.00;0.62;;;;;13.80;1.00;;;;;;2276679;61;1141;-86
2022/10/09 06:48:42;397742.00;1.33;685.92;0.00;0.00;0.62;;;;;14.40;1.00;;;;;;2276027;61;1152;-86
2022/10/09 06:51:11;437006.00;1.46;753.43;0.00;0.00;0.62;;;;;14.00;1.00;;;;;;2275984;61;1441;-84
2022/10/09 06:53:39;119355208.00;397.85;68876664.00;68809.00;0.23;119.70;;;;;14.20;1.00;;;;;;2275249;61;2013;-85
2022/10/09 06:56:07;347727.00;1.16;599.95;0.00;0.00;0.62;;;;;14.00;1.00;;;;;;2276474;61;1143;-85
2022/10/09 06:58:34;372852.00;1.24;643.14;0.00;0.00;0.62;;;;;14.50;1.00;;;;;;2275592;61;1127;-84
2022/10/09 07:01:06;253266.00;0.84;437.57;0.00;0.00;0.62;;;;;15.20;1.00;;;;;;2276586;61;1126;-86
2022/10/09 07:03:36;355851.00;1.19;613.92;0.00;0.00;0.62;;;;;16.30;1.00;;;;;;2275785;61;1297;-85
2022/10/09 07:06:07;499792.00;1.67;861.47;0.00;0.00;0.62;;;;;16.10;1.00;;;;;;2276621;61;971;-87
2022/10/09 07:08:37;488566.00;1.63;842.14;0.00;0.00;0.62;;;;;15.90;1.00;;;;;;2275668;61;1046;-86
2022/10/09 07:11:09;637180.00;2.12;1098.46;53795.00;0.18;93.75;;;;;15.80;1.00;;;;;;2275993;61;949;-87
2022/10/09 07:13:36;726027.00;2.42;1252.40;71876.00;0.24;125.00;;;;;16.00;1.00;;;;;;2276194;61;1923;-88
2022/10/09 07:16:04;445433.00;1.48;767.93;72630.00;0.24;126.30;;;;;15.60;1.00;;;;;;2276101;61;1166;-86
2022/10/09 07:18:34;414601.00;1.38;714.91;80349.00;0.27;139.64;;;;;15.70;1.00;;;;;;2276250;61;1014;-86
2022/10/09 07:21:02;655455.00;2.18;1130.07;121072.00;0.40;209.93;;;;;15.60;1.00;;;;;;2275473;61;987;-85
2022/10/09 07:23:29;583769.00;1.95;1006.20;91115.00;0.30;158.23;;;;;15.50;1.00;;;;;;2275714;61;1387;-86
2022/10/09 07:25:57;457341.00;1.52;788.41;62854.00;0.21;109.41;;;;;15.50;1.00;;;;;;2276626;61;1135;-87
2022/10/09 07:28:25;699257.00;2.33;1205.95;71188.00;0.24;123.81;;;;;15.10;1.00;;;;;;2276283;61;1147;-88
2022/10/09 07:30:52;709244.00;2.36;1223.27;64233.00;0.21;111.79;;;;;15.30;1.00;;;;;;2276541;61;1064;-86
2022/10/09 07:33:19;522755.00;1.74;901.01;0.00;0.00;0.62;;;;;15.80;1.00;;;;;;2276409;61;1918;-87
2022/10/09 07:35:54;352034.00;1.17;607.36;0.00;0.00;0.62;;;;;16.00;1.00;;;;;;2276406;61;1219;-87
2022/10/09 07:38:21;565275.00;1.88;974.30;67994.00;0.23;118.29;;;;;16.20;1.00;;;;;;2276428;61;1127;-87
2022/10/09 07:40:48;792185.00;2.64;1367.50;74439.00;0.25;129.43;;;;;16.30;1.00;;;;;;2276484;61;1031;-87
2022/10/09 07:43:15;633257.00;2.11;1091.68;72020.00;0.24;125.25;;;;;16.10;1.00;;;;;;2276461;61;1398;-87
2022/10/09 07:45:42;429854.00;1.43;741.13;53353.00;0.18;92.98;;;;;16.20;1.00;;;;;;2276420;61;1526;-87
2022/10/09 07:48:09;442892.00;1.48;763.56;63964.00;0.21;111.33;;;;;16.60;1.00;;;;;;2276487;61;1084;-86
2022/10/09 07:50:36;479081.00;1.60;825.82;63952.00;0.21;111.31;;;;;16.90;1.00;;;;;;2276576;61;1071;-87
2022/10/09 07:53:07;567183.00;1.89;977.59;81689.00;0.27;141.95;;;;;16.90;1.00;;;;;;2276300;61;1923;-86
2022/10/09 07:55:34;613992.00;2.05;1058.39;73366.00;0.24;127.58;;;;;17.00;1.00;;;;;;2276386;61;2330;-86
2022/10/09 07:58:02;264995.00;0.88;457.74;64482.00;0.21;112.22;;;;;17.00;1.00;;;;;;2276498;61;1195;-87
2022/10/09 08:00:28;730921.00;2.44;1260.90;63518.00;0.21;110.56;;;;;16.10;1.00;;;;;;2276427;61;1095;-89
2022/10/09 08:02:55;448164.00;1.49;772.62;63148.00;0.21;109.92;;;;;16.20;1.00;;;;;;2276393;61;1014;-87
2022/10/09 08:05:23;578537.00;1.93;997.17;129558.00;0.43;224.57;;;;;16.40;1.00;;;;;;2276375;61;1210;-87
2022/10/09 08:07:50;768252.00;2.56;1325.81;74900.00;0.25;130.23;;;;;16.70;1.00;;;;;;2276482;61;1356;-87
2022/10/09 08:10:18;457585.00;1.53;788.83;66399.00;0.22;115.54;;;;;16.70;1.00;;;;;;2276298;61;1479;-87
2022/10/09 08:12:45;498689.00;1.66;859.57;64574.00;0.22;112.38;;;;;17.20;1.00;;;;;;2276433;61;1994;-87
2022/10/09 08:15:12;422512.00;1.41;728.51;0.00;0.00;0.62;;;;;17.20;1.00;;;;;;2276367;61;1360;-86
2022/10/09 08:17:39;213100.00;0.71;368.47;0.00;0.00;0.62;;;;;16.80;1.00;;;;;;2276427;61;1005;-85
2022/10/09 08:20:06;426831.00;1.42;735.94;0.00;0.00;0.62;;;;;16.80;1.00;;;;;;2276532;61;1009;-85
2022/10/09 08:22:33;365491.00;1.22;630.49;0.00;0.00;0.62;;;;;16.80;1.00;;;;;;2276311;61;1051;-86
2022/10/09 08:25:00;233811.00;0.78;404.10;0.00;0.00;0.62;;;;;16.00;1.00;;;;;;2276359;61;1284;-87
2022/10/09 08:27:28;243560.00;0.81;420.87;0.00;0.00;0.62;;;;;15.90;1.00;;;;;;2276324;61;1120;-85
2022/10/09 08:29:55;763171.00;2.54;1316.97;65063.00;0.22;113.23;;;;;16.00;1.00;;;;;;2276379;61;1094;-85
2022/10/09 08:32:22;483950.00;1.61;834.20;74024.00;0.25;128.71;;;;;15.80;1.00;;;;;;2276329;61;1992;-84
2022/10/09 08:34:50;419035.00;1.40;722.53;0.00;0.00;0.62;;;;;15.50;1.00;;;;;;2276289;61;1319;-85
2022/10/09 08:37:16;450631.00;1.50;776.87;0.00;0.00;0.62;;;;;15.50;1.00;;;;;;2276385;61;1191;-86
2022/10/09 08:39:43;291904.00;0.97;504.00;0.00;0.00;0.62;;;;;15.80;1.00;;;;;;2276245;61;1015;-87
2022/10/09 08:42:27;433864.00;1.45;748.03;49888.00;0.17;86.99;;;;;16.10;1.00;;;;;;2276238;61;1972;-87
2022/10/09 08:44:56;572083.00;1.91;986.04;69864.00;0.23;121.53;;;;;15.60;1.00;;;;;;2276285;61;1485;-86
2022/10/09 08:47:32;344961.00;1.15;595.20;0.00;0.00;0.62;;;;;15.30;1.00;;;;;;2276210;61;1017;-85
2022/10/09 08:50:07;636911.00;2.12;1098.00;73138.00;0.24;127.18;;;;;15.30;1.00;;;;;;2276332;61;1071;-85
2022/10/09 08:52:43;594844.00;1.98;1025.32;68248.00;0.23;118.73;;;;;15.50;1.00;;;;;;2276281;61;1989;-86
2022/10/09 08:55:19;556921.00;1.86;959.89;114503.00;0.38;198.60;;;;;15.50;1.00;;;;;;2276334;61;1478;-85
2022/10/09 08:57:50;439692.00;1.47;758.05;131064.00;0.44;227.16;;;;;16.00;1.00;;;;;;2276309;61;1171;-85
2022/10/09 09:00:20;507731.00;1.69;875.14;68075.00;0.23;118.43;;;;;16.10;1.00;;;;;;2276134;61;1126;-85
2022/10/09 09:03:16;588608.00;1.96;1014.55;85788.00;0.29;149.03;;;;;16.30;1.00;;;;;;2276341;61;1143;-85
2022/10/09 09:05:51;460161.00;1.53;793.26;0.00;0.00;0.62;;;;;16.50;1.00;;;;;;2274826;61;1446;-88
2022/10/09 09:08:27;436847.00;1.46;753.16;59559.00;0.20;103.71;;;;;16.90;1.00;;;;;;2276968;61;1121;-86
2022/10/09 09:11:10;521478.00;1.74;898.81;65235.00;0.22;113.53;;;;;16.70;1.00;;;;;;2277008;61;1137;-85
2022/10/09 09:13:49;586650.00;1.96;1011.17;76451.00;0.25;132.91;;;;;16.60;1.00;;;;;;2276923;61;1915;-86
2022/10/09 09:16:31;421064.00;1.40;726.02;51188.00;0.17;89.24;;;;;16.30;1.00;;;;;;2276977;61;1057;-86
2022/10/09 09:19:14;1055646.00;3.52;1831.28;114495.00;0.38;198.59;;;;;16.10;1.00;;;;;;2277022;61;1005;-85
2022/10/09 09:21:50;635787.00;2.12;1096.05;55217.00;0.18;96.21;;;;;16.00;1.00;;;;;;2276991;61;1729;-87
2022/10/09 09:24:19;651467.00;2.17;1123.17;154640.00;0.52;267.80;;;;;16.30;1.00;;;;;;2276903;61;2223;-86
2022/10/09 09:26:50;1017031.00;3.39;1762.66;110746.00;0.37;192.12;;;;;16.30;1.00;;;;;;2276967;61;1097;-86
2022/10/09 09:29:22;1303670.00;4.35;2278.82;78605.00;0.26;136.63;;;;;16.30;1.00;;;;;;2276858;61;1117;-85
2022/10/09 09:31:57;1386016.00;4.62;2430.41;224969.00;0.75;388.89;;;;;16.00;1.00;;;;;;2276849;61;1037;-84
2022/10/09 09:34:33;727778.00;2.43;1255.44;71231.00;0.24;123.89;;;;;15.90;1.00;;;;;;2276849;61;2012;-86
2022/10/09 09:37:01;708531.00;2.36;1222.04;0.00;0.00;0.62;;;;;16.00;1.00;;;;;;2276955;61;1045;-85
2022/10/09 09:39:31;457983.00;1.53;789.51;0.00;0.00;0.62;;;;;16.00;1.00;;;;;;2276793;61;1127;-85
2022/10/09 09:42:02;450559.00;1.50;776.74;0.00;0.00;0.62;;;;;16.30;1.00;;;;;;2276869;61;1032;-86
2022/10/09 09:44:33;434105.00;1.45;748.44;0.00;0.00;0.62;;;;;16.50;1.00;;;;;;2276871;61;1457;-86
2022/10/09 09:47:01;836975.00;2.79;1445.69;30545.00;0.10;53.53;;;;;16.20;1.00;;;;;;2276894;61;932;-86
2022/10/09 09:49:28;366527.00;1.22;632.27;0.00;0.00;0.62;;;;;16.10;1.00;;;;;;2276756;61;989;-85
2022/10/09 09:52:00;666553.00;2.22;1149.28;0.00;0.00;0.62;;;;;16.20;1.00;;;;;;2276685;61;1178;-84
2022/10/09 09:54:30;547302.00;1.82;943.31;88588.00;0.30;153.87;;;;;16.00;1.00;;;;;;2276702;61;1988;-85